createdAt,value
2022-11-05T00:00:25.158Z,6
2022-11-05T00:15:24.907Z,7
2022-11-05T00:30:24.157Z,10
2022-11-05T00:45:24.916Z,13
2022-11-05T01:00:24.089Z,17
2022-11-05T01:15:24.461Z,11
2022-11-05T01:30:24.962Z,11
2022-11-05T01:45:24.363Z,11
2022-11-05T02:00:24.242Z,11
2022-11-05T02:15:24.627Z,11
2022-11-05T02:30:24.746Z,11
2022-11-05T02:45:24.612Z,10
2022-11-05T03:00:24.177Z,10
2022-11-05T03:15:24.758Z,11
2022-11-05T03:30:24.808Z,12
2022-11-05T03:45:24.016Z,8
2022-11-05T04:00:24.522Z,12
2022-11-05T04:15:24.658Z,14
2022-11-05T04:30:24.100Z,21
2022-11-05T04:45:24.647Z,22
2022-11-05T05:00:24.668Z,18
2022-11-05T05:15:23.896Z,17
2022-11-05T05:30:24.314Z,18
2022-11-05T05:45:24.328Z,20
2022-11-05T06:00:23.823Z,23
2022-11-05T06:15:25.032Z,20
2022-11-05T06:30:24.684Z,21
2022-11-05T06:45:24.520Z,23
2022-11-05T07:00:24.642Z,32
2022-11-05T07:15:24.252Z,32
2022-11-05T07:30:24.507Z,39
2022-11-05T07:45:24.442Z,32
2022-11-05T08:00:24.577Z,28
2022-11-05T08:15:24.673Z,32
2022-11-05T08:30:24.228Z,34
2022-11-05T08:45:24.492Z,39
2022-11-05T09:00:24.210Z,44
2022-11-05T09:15:24.301Z,37
2022-11-05T09:30:24.374Z,39
2022-11-05T09:45:24.328Z,41
2022-11-05T10:00:24.566Z,40
2022-11-05T10:15:23.927Z,42
2022-11-05T10:30:24.630Z,28
2022-11-05T10:45:24.405Z,33
2022-11-05T11:00:24.969Z,26
2022-11-05T11:15:24.134Z,20
2022-11-05T11:30:24.128Z,33
2022-11-05T11:45:24.261Z,19
2022-11-05T12:00:24.825Z,16
2022-11-05T12:15:24.497Z,21
2022-11-05T12:30:24.928Z,12
2022-11-05T12:45:24.768Z,17
2022-11-05T13:00:24.664Z,19
2022-11-05T13:15:24.743Z,18
2022-11-05T13:30:24.307Z,21
2022-11-05T13:45:24.724Z,23
2022-11-05T14:00:24.808Z,21
2022-11-05T14:15:24.093Z,18
2022-11-05T14:30:23.964Z,17
2022-11-05T14:45:23.932Z,20
2022-11-05T15:00:23.915Z,18
2022-11-05T15:15:24.006Z,18
2022-11-05T15:30:23.764Z,20
2022-11-05T15:45:24.238Z,19
2022-11-05T16:00:24.606Z,25
2022-11-05T16:15:24.192Z,20
2022-11-05T16:30:24.176Z,25
2022-11-05T16:45:24.513Z,28
2022-11-05T17:00:23.779Z,35
2022-11-05T17:15:24.629Z,27
2022-11-05T17:30:23.922Z,32
2022-11-05T17:45:24.676Z,36
2022-11-05T18:00:24.352Z,29
2022-11-05T18:15:23.989Z,28
2022-11-05T18:30:24.241Z,27
2022-11-05T18:45:30.072Z,35
2022-11-05T19:00:24.839Z,37
2022-11-05T19:15:24.561Z,38
2022-11-05T19:30:24.818Z,41
2022-11-05T19:45:45.372Z,49
2022-11-05T20:00:24.110Z,46
2022-11-05T20:15:24.368Z,36
2022-11-05T20:30:24.213Z,38
2022-11-05T20:45:24.265Z,33
2022-11-05T21:00:24.062Z,31
2022-11-05T21:15:24.412Z,28
2022-11-05T21:30:24.233Z,33
2022-11-05T21:45:24.392Z,37
2022-11-05T22:00:24.231Z,34
2022-11-05T22:15:24.720Z,36
2022-11-05T22:30:24.722Z,90
2022-11-05T22:45:24.283Z,42
2022-11-05T23:00:24.618Z,41
2022-11-05T23:15:24.931Z,40
2022-11-05T23:30:24.293Z,44
2022-11-05T23:45:24.457Z,39
